createdAt,value
2023-03-04T00:00:11.615Z,1020.68
2023-03-04T00:01:11.596Z,1020.70
2023-03-04T00:02:11.616Z,1020.62
2023-03-04T00:03:11.662Z,1020.66
2023-03-04T00:04:12.264Z,1020.72
2023-03-04T00:05:12.257Z,1020.66
2023-03-04T00:06:12.241Z,1020.73
2023-03-04T00:07:12.235Z,1020.75
2023-03-04T00:08:11.544Z,1020.74
2023-03-04T00:09:11.528Z,1020.74
2023-03-04T00:10:12.205Z,1020.79
2023-03-04T00:11:12.198Z,1020.73
2023-03-04T00:12:12.182Z,1020.76
2023-03-04T00:13:12.145Z,1020.75
2023-03-04T00:14:11.459Z,1020.74
2023-03-04T00:15:12.151Z,1020.69
2023-03-04T00:16:11.486Z,1020.70
2023-03-04T00:17:12.140Z,1020.73
2023-03-04T00:18:12.108Z,1020.70
2023-03-04T00:19:11.405Z,1020.72
2023-03-04T00:20:12.086Z,1020.72
2023-03-04T00:21:12.080Z,1020.69
2023-03-04T00:22:12.068Z,1020.73
2023-03-04T00:23:11.437Z,1020.68
2023-03-04T00:24:12.049Z,1020.72
2023-03-04T00:25:12.048Z,1020.68
2023-03-04T00:26:12.074Z,1020.72
2023-03-04T00:27:12.838Z,1020.70
2023-03-04T00:28:11.374Z,1020.71
2023-03-04T00:29:11.350Z,1020.72
2023-03-04T00:30:12.010Z,1020.71
2023-03-04T00:31:11.967Z,1020.73
2023-03-04T00:32:11.356Z,1020.71
2023-03-04T00:33:11.290Z,1020.76
2023-03-04T00:34:11.929Z,1020.76
2023-03-04T00:35:11.931Z,1020.76
2023-03-04T00:36:11.249Z,1020.75
2023-03-04T00:37:11.220Z,1020.67
2023-03-04T00:38:11.215Z,1020.69
2023-03-04T00:39:12.295Z,1020.70
2023-03-04T00:40:11.891Z,1020.66
2023-03-04T00:41:11.871Z,1020.63
2023-03-04T00:42:11.857Z,1020.63
2023-03-04T00:43:11.809Z,1020.64
2023-03-04T00:44:11.173Z,1020.63
2023-03-04T00:45:11.824Z,1020.60
2023-03-04T00:46:11.882Z,1020.61
2023-03-04T00:47:12.100Z,1020.62
2023-03-04T00:48:11.760Z,1020.56
2023-03-04T00:49:11.763Z,1020.59
2023-03-04T00:50:11.765Z,1020.58
2023-03-04T00:51:11.069Z,1020.56
2023-03-04T00:52:11.749Z,1020.58
2023-03-04T00:53:11.740Z,1020.58
2023-03-04T00:54:11.718Z,1020.55
2023-03-04T00:55:11.736Z,1020.57
2023-03-04T00:56:11.030Z,1020.57
2023-03-04T00:57:11.692Z,1020.57
2023-03-04T00:58:11.682Z,1020.54
2023-03-04T00:59:11.699Z,1020.58
2023-03-04T01:00:10.982Z,1020.59
2023-03-04T01:01:11.668Z,1020.55
2023-03-04T01:02:11.680Z,1020.57
2023-03-04T01:03:11.628Z,1020.56
2023-03-04T01:04:10.948Z,1020.54
2023-03-04T01:05:11.806Z,1020.54
2023-03-04T01:06:11.874Z,1020.52
2023-03-04T01:07:11.585Z,1020.53
2023-03-04T01:08:11.562Z,1020.48
2023-03-04T01:09:10.883Z,1020.51
2023-03-04T01:10:11.544Z,1020.51
2023-03-04T01:11:10.860Z,1020.51
2023-03-04T01:12:12.543Z,1020.54
2023-03-04T01:13:10.835Z,1020.54
2023-03-04T01:14:10.857Z,1020.53
2023-03-04T01:15:12.245Z,1020.49
2023-03-04T01:16:11.498Z,1020.51
2023-03-04T01:17:10.792Z,1020.50
2023-03-04T01:18:11.613Z,1020.48
2023-03-04T01:19:11.433Z,1020.51
2023-03-04T01:20:10.754Z,1020.49
2023-03-04T01:21:10.755Z,1020.51
2023-03-04T01:22:11.417Z,1020.49
2023-03-04T01:23:10.715Z,1020.45
2023-03-04T01:24:10.714Z,1020.46
2023-03-04T01:25:11.403Z,1020.45
2023-03-04T01:26:11.366Z,1020.44
2023-03-04T01:27:11.367Z,1020.43
2023-03-04T01:28:11.350Z,1020.43
2023-03-04T01:29:11.323Z,1020.40
2023-03-04T01:30:10.649Z,1020.40
2023-03-04T01:31:10.795Z,1020.38
2023-03-04T01:32:10.673Z,1020.36
2023-03-04T01:33:11.294Z,1020.39
2023-03-04T01:34:12.556Z,1020.35
2023-03-04T01:35:10.624Z,1020.29
2023-03-04T01:36:10.576Z,1020.32
2023-03-04T01:37:11.509Z,1020.28
2023-03-04T01:38:10.607Z,1020.29
2023-03-04T01:39:11.248Z,1020.34
2023-03-04T01:40:11.239Z,1020.30
2023-03-04T01:41:11.213Z,1020.32
2023-03-04T01:42:11.227Z,1020.27
2023-03-04T01:43:11.197Z,1020.25
2023-03-04T01:44:11.156Z,1020.36
2023-03-04T01:45:11.167Z,1020.26
2023-03-04T01:46:11.169Z,1020.30
2023-03-04T01:47:10.472Z,1020.27
2023-03-04T01:48:11.170Z,1020.27
2023-03-04T01:49:10.504Z,1020.26
2023-03-04T01:50:11.111Z,1020.25
2023-03-04T01:51:11.123Z,1020.26
2023-03-04T01:52:11.092Z,1020.21
2023-03-04T01:53:10.420Z,1020.19
2023-03-04T01:54:10.403Z,1020.21
2023-03-04T01:55:11.065Z,1020.20
2023-03-04T01:56:10.367Z,1020.18
2023-03-04T01:57:11.041Z,1020.15
2023-03-04T01:58:10.381Z,1020.21
2023-03-04T01:59:10.355Z,1020.17
2023-03-04T02:00:11.014Z,1020.14
2023-03-04T02:01:10.366Z,1020.19
2023-03-04T02:02:11.244Z,1020.16
2023-03-04T02:03:10.976Z,1020.17
2023-03-04T02:04:10.310Z,1020.14
2023-03-04T02:05:10.403Z,1020.13
2023-03-04T02:06:10.945Z,1020.14
2023-03-04T02:07:10.247Z,1020.12
2023-03-04T02:08:10.926Z,1020.12
2023-03-04T02:09:10.901Z,1020.12
2023-03-04T02:10:10.910Z,1020.11
2023-03-04T02:11:10.217Z,1020.10
2023-03-04T02:12:11.167Z,1020.01
2023-03-04T02:13:10.295Z,1020.04
2023-03-04T02:14:10.207Z,1020.01
2023-03-04T02:15:10.867Z,1020.01
2023-03-04T02:16:10.988Z,1020.04
2023-03-04T02:17:10.155Z,1020.01
2023-03-04T02:18:10.817Z,1020.00
2023-03-04T02:19:10.203Z,1019.99
2023-03-04T02:20:10.803Z,1019.99
2023-03-04T02:21:10.795Z,1020.00
2023-03-04T02:22:10.132Z,1019.97
2023-03-04T02:23:10.776Z,1019.96
2023-03-04T02:24:10.124Z,1019.97
2023-03-04T02:25:10.749Z,1019.93
2023-03-04T02:26:10.744Z,1019.98
2023-03-04T02:27:10.721Z,1019.97
2023-03-04T02:28:10.071Z,1019.96
2023-03-04T02:29:10.047Z,1019.92
2023-03-04T02:30:10.692Z,1019.94
2023-03-04T02:31:10.056Z,1019.93
2023-03-04T02:32:10.691Z,1019.95
2023-03-04T02:33:09.955Z,1019.92
2023-03-04T02:34:10.632Z,1019.92
2023-03-04T02:35:09.972Z,1019.95
2023-03-04T02:36:09.976Z,1019.91
2023-03-04T02:37:09.965Z,1019.86
2023-03-04T02:38:09.927Z,1019.89
2023-03-04T02:39:10.595Z,1019.87
2023-03-04T02:40:09.932Z,1019.93
2023-03-04T02:41:10.590Z,1019.93
2023-03-04T02:42:10.593Z,1019.88
2023-03-04T02:43:10.554Z,1019.88
2023-03-04T02:44:10.523Z,1019.86
2023-03-04T02:45:09.843Z,1019.86
2023-03-04T02:46:09.978Z,1019.89
2023-03-04T02:47:09.858Z,1019.86
2023-03-04T02:48:10.531Z,1019.91
2023-03-04T02:49:09.824Z,1019.90
2023-03-04T02:50:10.476Z,1019.86
2023-03-04T02:51:09.785Z,1019.84
2023-03-04T02:52:09.788Z,1019.87
2023-03-04T02:53:10.461Z,1019.85
2023-03-04T02:54:10.706Z,1019.82
2023-03-04T02:55:10.700Z,1019.82
2023-03-04T02:56:10.689Z,1019.78
2023-03-04T02:57:10.417Z,1019.74
2023-03-04T02:58:10.387Z,1019.81
2023-03-04T02:59:10.646Z,1019.77
2023-03-04T03:00:10.347Z,1019.78
2023-03-04T03:01:10.358Z,1019.76
2023-03-04T03:02:10.715Z,1019.74
2023-03-04T03:03:11.663Z,1019.73
2023-03-04T03:04:10.579Z,1019.70
2023-03-04T03:05:10.340Z,1019.69
2023-03-04T03:06:10.311Z,1019.68
2023-03-04T03:07:10.312Z,1019.67
2023-03-04T03:08:10.291Z,1019.66
2023-03-04T03:09:10.279Z,1019.62
2023-03-04T03:10:09.591Z,1019.63
2023-03-04T03:11:10.273Z,1019.65
2023-03-04T03:12:10.250Z,1019.53
2023-03-04T03:13:10.232Z,1019.62
2023-03-04T03:14:10.222Z,1019.60
2023-03-04T03:15:10.191Z,1019.60
2023-03-04T03:16:09.605Z,1019.59
2023-03-04T03:17:10.194Z,1019.63
2023-03-04T03:18:10.180Z,1019.59
2023-03-04T03:19:10.178Z,1019.59
2023-03-04T03:20:10.142Z,1019.59
2023-03-04T03:21:09.475Z,1019.59
2023-03-04T03:22:10.130Z,1019.60
2023-03-04T03:23:10.131Z,1019.55
2023-03-04T03:24:10.126Z,1019.58
2023-03-04T03:25:10.119Z,1019.59
2023-03-04T03:26:09.410Z,1019.54
2023-03-04T03:27:10.087Z,1019.57
2023-03-04T03:28:10.077Z,1019.52
2023-03-04T03:29:10.061Z,1019.53
2023-03-04T03:30:10.030Z,1019.53
2023-03-04T03:31:10.115Z,1019.53
2023-03-04T03:32:10.229Z,1019.57
2023-03-04T03:33:09.351Z,1019.55
2023-03-04T03:34:10.011Z,1019.53
2023-03-04T03:35:09.323Z,1019.55
2023-03-04T03:36:10.014Z,1019.59
2023-03-04T03:37:09.968Z,1019.55
2023-03-04T03:38:09.960Z,1019.57
2023-03-04T03:39:09.270Z,1019.54
2023-03-04T03:40:09.933Z,1019.53
2023-03-04T03:41:09.256Z,1019.53
2023-03-04T03:42:09.927Z,1019.53
2023-03-04T03:43:09.235Z,1019.54
2023-03-04T03:44:09.223Z,1019.52
2023-03-04T03:45:09.874Z,1019.49
2023-03-04T03:46:09.264Z,1019.53
2023-03-04T03:47:09.171Z,1019.47
2023-03-04T03:48:09.868Z,1019.48
2023-03-04T03:49:09.853Z,1019.47
2023-03-04T03:50:09.825Z,1019.50
2023-03-04T03:51:09.822Z,1019.49
2023-03-04T03:52:09.823Z,1019.51
2023-03-04T03:53:09.104Z,1019.50
2023-03-04T03:54:09.792Z,1019.46
2023-03-04T03:55:11.032Z,1019.50
2023-03-04T03:56:09.075Z,1019.47
2023-03-04T03:57:09.758Z,1019.46
2023-03-04T03:58:09.766Z,1019.46
2023-03-04T03:59:09.740Z,1019.45
2023-03-04T04:00:09.713Z,1019.48
2023-03-04T04:01:09.722Z,1019.46
2023-03-04T04:02:09.198Z,1019.42
2023-03-04T04:03:09.700Z,1019.45
2023-03-04T04:04:09.693Z,1019.47
2023-03-04T04:05:10.460Z,1019.48
2023-03-04T04:06:10.927Z,1019.44
2023-03-04T04:07:08.959Z,1019.44
2023-03-04T04:08:09.653Z,1019.41
2023-03-04T04:09:09.648Z,1019.39
2023-03-04T04:10:09.602Z,1019.41
2023-03-04T04:11:08.930Z,1019.42
2023-03-04T04:12:09.600Z,1019.34
2023-03-04T04:13:08.916Z,1019.33
2023-03-04T04:14:09.601Z,1019.35
2023-03-04T04:15:09.560Z,1019.34
2023-03-04T04:16:09.583Z,1019.36
2023-03-04T04:17:08.851Z,1019.34
2023-03-04T04:18:08.854Z,1019.37
2023-03-04T04:19:08.873Z,1019.37
2023-03-04T04:20:09.682Z,1019.41
2023-03-04T04:21:09.523Z,1019.32
2023-03-04T04:22:09.665Z,1019.32
2023-03-04T04:23:09.481Z,1019.27
2023-03-04T04:24:09.471Z,1019.30
2023-03-04T04:25:10.834Z,1019.36
2023-03-04T04:26:08.760Z,1019.32
2023-03-04T04:27:09.441Z,1019.36
2023-03-04T04:28:09.432Z,1019.31
2023-03-04T04:29:08.728Z,1019.36
2023-03-04T04:30:08.731Z,1019.33
2023-03-04T04:31:09.524Z,1019.34
2023-03-04T04:32:09.441Z,1019.34
2023-03-04T04:33:09.378Z,1019.35
2023-03-04T04:34:09.386Z,1019.35
2023-03-04T04:35:09.342Z,1019.27
2023-03-04T04:36:08.651Z,1019.35
2023-03-04T04:37:08.675Z,1019.30
2023-03-04T04:38:09.340Z,1019.28
2023-03-04T04:39:09.329Z,1019.32
2023-03-04T04:40:09.285Z,1019.30
2023-03-04T04:41:09.288Z,1019.28
2023-03-04T04:42:08.600Z,1019.29
2023-03-04T04:43:09.274Z,1019.34
2023-03-04T04:44:09.257Z,1019.34
2023-03-04T04:45:10.504Z,1019.32
2023-03-04T04:46:08.616Z,1019.35
2023-03-04T04:47:08.549Z,1019.34
2023-03-04T04:48:08.529Z,1019.33
2023-03-04T04:49:08.522Z,1019.31
2023-03-04T04:50:08.510Z,1019.33
2023-03-04T04:51:09.179Z,1019.31
2023-03-04T04:52:09.184Z,1019.30
2023-03-04T04:53:08.464Z,1019.27
2023-03-04T04:54:08.460Z,1019.33
2023-03-04T04:55:09.402Z,1019.32
2023-03-04T04:56:09.131Z,1019.32
2023-03-04T04:57:09.110Z,1019.34
2023-03-04T04:58:09.099Z,1019.26
2023-03-04T04:59:09.357Z,1019.24
2023-03-04T05:00:08.401Z,1019.29
2023-03-04T05:01:09.086Z,1019.22
2023-03-04T05:02:08.394Z,1019.29
2023-03-04T05:03:09.362Z,1019.30
2023-03-04T05:04:09.043Z,1019.24
2023-03-04T05:05:10.299Z,1019.29
2023-03-04T05:06:09.026Z,1019.30
2023-03-04T05:07:09.014Z,1019.28
2023-03-04T05:08:09.001Z,1019.30
2023-03-04T05:09:08.996Z,1019.29
2023-03-04T05:10:08.961Z,1019.29
2023-03-04T05:11:08.975Z,1019.30
2023-03-04T05:12:08.286Z,1019.31
2023-03-04T05:13:08.964Z,1019.28
2023-03-04T05:14:08.946Z,1019.28
2023-03-04T05:15:10.210Z,1019.35
2023-03-04T05:16:09.007Z,1019.35
2023-03-04T05:17:08.210Z,1019.36
2023-03-04T05:18:08.896Z,1019.34
2023-03-04T05:19:09.480Z,1019.32
2023-03-04T05:20:08.875Z,1019.31
2023-03-04T05:21:08.861Z,1019.28
2023-03-04T05:22:08.151Z,1019.31
2023-03-04T05:23:08.152Z,1019.34
2023-03-04T05:24:08.140Z,1019.37
2023-03-04T05:25:10.084Z,1019.33
2023-03-04T05:26:10.073Z,1019.35
2023-03-04T05:27:08.793Z,1019.33
2023-03-04T05:28:08.784Z,1019.34
2023-03-04T05:29:08.786Z,1019.32
2023-03-04T05:30:08.093Z,1019.31
2023-03-04T05:31:08.953Z,1019.32
2023-03-04T05:32:08.755Z,1019.29
2023-03-04T05:33:08.055Z,1019.24
2023-03-04T05:34:08.726Z,1019.26
2023-03-04T05:35:08.964Z,1019.28
2023-03-04T05:36:08.041Z,1019.28
2023-03-04T05:37:08.020Z,1019.30
2023-03-04T05:38:08.694Z,1019.21
2023-03-04T05:39:07.986Z,1019.29
2023-03-04T05:40:07.966Z,1019.27
2023-03-04T05:41:08.637Z,1019.27
2023-03-04T05:42:07.956Z,1019.29
2023-03-04T05:43:08.631Z,1019.29
2023-03-04T05:44:08.615Z,1019.27
2023-03-04T05:45:08.894Z,1019.26
2023-03-04T05:46:08.594Z,1019.26
2023-03-04T05:47:08.586Z,1019.26
2023-03-04T05:48:07.892Z,1019.32
2023-03-04T05:49:08.558Z,1019.34
2023-03-04T05:50:08.548Z,1019.35
2023-03-04T05:51:08.521Z,1019.33
2023-03-04T05:52:08.543Z,1019.31
2023-03-04T05:53:07.858Z,1019.28
2023-03-04T05:54:08.509Z,1019.29
2023-03-04T05:55:09.755Z,1019.27
2023-03-04T05:56:08.472Z,1019.28
2023-03-04T05:57:08.472Z,1019.31
2023-03-04T05:58:08.469Z,1019.29
2023-03-04T05:59:08.464Z,1019.30
2023-03-04T06:00:08.467Z,1019.28
2023-03-04T06:01:09.199Z,1019.26
2023-03-04T06:02:08.421Z,1019.25
2023-03-04T06:03:07.734Z,1019.28
2023-03-04T06:04:07.800Z,1019.29
2023-03-04T06:05:08.391Z,1019.30
2023-03-04T06:06:08.377Z,1019.26
2023-03-04T06:07:08.362Z,1019.29
2023-03-04T06:08:08.369Z,1019.34
2023-03-04T06:09:07.652Z,1019.33
2023-03-04T06:10:07.663Z,1019.35
2023-03-04T06:11:08.310Z,1019.28
2023-03-04T06:12:08.314Z,1019.31
2023-03-04T06:13:07.626Z,1019.31
2023-03-04T06:14:08.354Z,1019.29
2023-03-04T06:15:08.536Z,1019.30
2023-03-04T06:16:07.636Z,1019.33
2023-03-04T06:17:08.273Z,1019.32
2023-03-04T06:18:07.613Z,1019.35
2023-03-04T06:19:08.234Z,1019.37
2023-03-04T06:20:08.235Z,1019.35
2023-03-04T06:21:08.205Z,1019.38
2023-03-04T06:22:08.214Z,1019.43
2023-03-04T06:23:08.212Z,1019.40
2023-03-04T06:24:08.187Z,1019.41
2023-03-04T06:25:08.174Z,1019.36
2023-03-04T06:26:08.145Z,1019.39
2023-03-04T06:27:08.178Z,1019.41
2023-03-04T06:28:07.506Z,1019.39
2023-03-04T06:29:08.139Z,1019.38
2023-03-04T06:30:08.120Z,1019.40
2023-03-04T06:31:09.388Z,1019.40
2023-03-04T06:32:08.115Z,1019.40
2023-03-04T06:33:07.401Z,1019.41
2023-03-04T06:34:08.076Z,1019.42
2023-03-04T06:35:08.071Z,1019.39
2023-03-04T06:36:08.040Z,1019.38
2023-03-04T06:37:08.065Z,1019.43
2023-03-04T06:38:07.390Z,1019.39
2023-03-04T06:39:08.023Z,1019.38
2023-03-04T06:40:08.026Z,1019.40
2023-03-04T06:41:08.018Z,1019.41
2023-03-04T06:42:07.995Z,1019.45
2023-03-04T06:43:08.229Z,1019.44
2023-03-04T06:44:07.280Z,1019.44
2023-03-04T06:45:09.217Z,1019.44
2023-03-04T06:46:07.941Z,1019.47
2023-03-04T06:47:07.956Z,1019.44
2023-03-04T06:48:07.937Z,1019.45
2023-03-04T06:49:07.915Z,1019.48
2023-03-04T06:50:07.941Z,1019.44
2023-03-04T06:51:07.230Z,1019.44
2023-03-04T06:52:07.883Z,1019.45
2023-03-04T06:53:07.871Z,1019.45
2023-03-04T06:54:07.858Z,1019.45
2023-03-04T06:55:07.846Z,1019.47
2023-03-04T06:56:07.189Z,1019.46
2023-03-04T06:57:07.837Z,1019.44
2023-03-04T06:58:07.818Z,1019.44
2023-03-04T06:59:07.807Z,1019.48
2023-03-04T07:00:07.791Z,1019.48
2023-03-04T07:01:07.791Z,1019.42
2023-03-04T07:02:07.110Z,1019.44
2023-03-04T07:03:07.768Z,1019.42
2023-03-04T07:04:07.877Z,1019.41
2023-03-04T07:05:07.741Z,1019.44
2023-03-04T07:06:07.719Z,1019.49
2023-03-04T07:07:07.039Z,1019.45
2023-03-04T07:08:07.735Z,1019.49
2023-03-04T07:09:07.709Z,1019.44
2023-03-04T07:10:07.690Z,1019.49
2023-03-04T07:11:07.658Z,1019.50
2023-03-04T07:12:07.661Z,1019.45
2023-03-04T07:13:07.662Z,1019.48
2023-03-04T07:14:06.962Z,1019.46
2023-03-04T07:15:07.637Z,1019.47
2023-03-04T07:16:07.638Z,1019.45
2023-03-04T07:17:07.610Z,1019.46
2023-03-04T07:18:07.601Z,1019.50
2023-03-04T07:19:07.591Z,1019.50
2023-03-04T07:20:07.611Z,1019.49
2023-03-04T07:21:07.558Z,1019.48
2023-03-04T07:22:07.562Z,1019.53
2023-03-04T07:23:07.552Z,1019.48
2023-03-04T07:24:06.840Z,1019.52
2023-03-04T07:25:06.840Z,1019.52
2023-03-04T07:26:07.506Z,1019.52
2023-03-04T07:27:07.515Z,1019.56
2023-03-04T07:28:07.497Z,1019.53
2023-03-04T07:29:07.483Z,1019.56
2023-03-04T07:30:06.773Z,1019.51
2023-03-04T07:31:06.784Z,1019.57
2023-03-04T07:32:06.894Z,1019.55
2023-03-04T07:33:06.763Z,1019.58
2023-03-04T07:34:07.436Z,1019.61
2023-03-04T07:35:07.414Z,1019.64
2023-03-04T07:36:08.654Z,1019.64
2023-03-04T07:37:06.773Z,1019.68
2023-03-04T07:38:07.393Z,1019.64
2023-03-04T07:39:07.395Z,1019.68
2023-03-04T07:40:06.697Z,1019.66
2023-03-04T07:41:07.366Z,1019.60
2023-03-04T07:42:07.343Z,1019.62
2023-03-04T07:43:08.586Z,1019.61
2023-03-04T07:44:06.639Z,1019.65
2023-03-04T07:45:07.323Z,1019.68
2023-03-04T07:46:07.421Z,1019.62
2023-03-04T07:47:07.289Z,1019.66
2023-03-04T07:48:06.596Z,1019.62
2023-03-04T07:49:06.634Z,1019.70
2023-03-04T07:50:07.265Z,1019.69
2023-03-04T07:51:06.578Z,1019.66
2023-03-04T07:52:07.229Z,1019.65
2023-03-04T07:53:07.230Z,1019.64
2023-03-04T07:54:06.541Z,1019.63
2023-03-04T07:55:07.208Z,1019.66
2023-03-04T07:56:07.216Z,1019.67
2023-03-04T07:57:07.178Z,1019.69
2023-03-04T07:58:06.516Z,1019.63
2023-03-04T07:59:06.481Z,1019.65
2023-03-04T08:00:06.462Z,1019.66
2023-03-04T08:01:06.483Z,1019.62
2023-03-04T08:02:07.213Z,1019.63
2023-03-04T08:03:07.138Z,1019.61
2023-03-04T08:04:07.139Z,1019.59
2023-03-04T08:05:06.414Z,1019.63
2023-03-04T08:06:06.401Z,1019.59
2023-03-04T08:07:07.074Z,1019.62
2023-03-04T08:08:07.080Z,1019.58
2023-03-04T08:09:07.074Z,1019.58
2023-03-04T08:10:06.416Z,1019.68
2023-03-04T08:11:07.065Z,1019.62
2023-03-04T08:12:07.016Z,1019.66
2023-03-04T08:13:06.324Z,1019.68
2023-03-04T08:14:07.037Z,1019.67
2023-03-04T08:15:06.384Z,1019.71
2023-03-04T08:16:06.362Z,1019.68
2023-03-04T08:17:06.963Z,1019.72
2023-03-04T08:18:06.284Z,1019.64
2023-03-04T08:19:06.982Z,1019.66
2023-03-04T08:20:06.282Z,1019.64
2023-03-04T08:21:06.959Z,1019.61
2023-03-04T08:22:06.932Z,1019.65
2023-03-04T08:23:06.937Z,1019.61
2023-03-04T08:24:06.301Z,1019.59
2023-03-04T08:25:06.899Z,1019.56
2023-03-04T08:26:06.920Z,1019.58
2023-03-04T08:27:06.204Z,1019.59
2023-03-04T08:28:06.895Z,1019.57
2023-03-04T08:29:06.871Z,1019.59
2023-03-04T08:30:06.177Z,1019.60
2023-03-04T08:31:06.915Z,1019.60
2023-03-04T08:32:06.851Z,1019.63
2023-03-04T08:33:06.184Z,1019.67
2023-03-04T08:34:06.796Z,1019.62
2023-03-04T08:35:06.124Z,1019.60
2023-03-04T08:36:06.775Z,1019.62
2023-03-04T08:37:06.777Z,1019.63
2023-03-04T08:38:06.766Z,1019.61
2023-03-04T08:39:06.813Z,1019.60
2023-03-04T08:40:06.738Z,1019.61
2023-03-04T08:41:06.035Z,1019.59
2023-03-04T08:42:06.137Z,1019.61
2023-03-04T08:43:06.705Z,1019.58
2023-03-04T08:44:06.695Z,1019.54
2023-03-04T08:45:06.737Z,1019.61
2023-03-04T08:46:06.906Z,1019.67
2023-03-04T08:47:07.919Z,1019.62
2023-03-04T08:48:06.646Z,1019.60
2023-03-04T08:49:06.646Z,1019.64
2023-03-04T08:50:06.697Z,1019.60
2023-03-04T08:51:06.618Z,1019.64
2023-03-04T08:52:06.601Z,1019.63
2023-03-04T08:53:06.609Z,1019.59
2023-03-04T08:54:06.592Z,1019.66
2023-03-04T08:55:05.918Z,1019.63
2023-03-04T08:56:06.561Z,1019.56
2023-03-04T08:57:06.532Z,1019.66
2023-03-04T08:58:05.849Z,1019.61
2023-03-04T08:59:05.868Z,1019.65
2023-03-04T09:00:06.530Z,1019.68
2023-03-04T09:01:06.515Z,1019.68
2023-03-04T09:02:06.528Z,1019.65
2023-03-04T09:03:05.814Z,1019.66
2023-03-04T09:04:06.484Z,1019.66
2023-03-04T09:05:06.461Z,1019.65
2023-03-04T09:06:06.454Z,1019.63
2023-03-04T09:07:06.425Z,1019.66
2023-03-04T09:08:06.434Z,1019.67
2023-03-04T09:09:05.747Z,1019.60
2023-03-04T09:10:06.414Z,1019.61
2023-03-04T09:11:05.852Z,1019.67
2023-03-04T09:12:05.734Z,1019.64
2023-03-04T09:13:06.381Z,1019.59
2023-03-04T09:14:06.384Z,1019.60
2023-03-04T09:15:11.612Z,1019.66
2023-03-04T09:16:08.646Z,1019.61
2023-03-04T09:17:05.662Z,1019.62
2023-03-04T09:18:06.346Z,1019.59
2023-03-04T09:19:06.325Z,1019.63
2023-03-04T09:20:06.308Z,1019.61
2023-03-04T09:21:05.629Z,1019.62
2023-03-04T09:22:05.622Z,1019.62
2023-03-04T09:23:06.291Z,1019.57
2023-03-04T09:24:06.270Z,1019.64
2023-03-04T09:25:08.917Z,1019.66
2023-03-04T09:26:06.546Z,1019.65
2023-03-04T09:27:06.221Z,1019.67
2023-03-04T09:28:06.220Z,1019.59
2023-03-04T09:29:06.208Z,1019.59
2023-03-04T09:30:06.200Z,1019.60
2023-03-04T09:31:06.222Z,1019.62
2023-03-04T09:32:06.276Z,1019.54
2023-03-04T09:33:05.477Z,1019.59
2023-03-04T09:34:06.154Z,1019.58
2023-03-04T09:35:06.152Z,1019.56
2023-03-04T09:36:06.401Z,1019.57
2023-03-04T09:37:06.108Z,1019.62
2023-03-04T09:38:06.129Z,1019.64
2023-03-04T09:39:05.440Z,1019.67
2023-03-04T09:40:06.088Z,1019.59
2023-03-04T09:41:05.409Z,1019.60
2023-03-04T09:42:06.052Z,1019.62
2023-03-04T09:43:05.364Z,1019.52
2023-03-04T09:44:06.049Z,1019.53
2023-03-04T09:45:05.340Z,1019.54
2023-03-04T09:46:06.030Z,1019.57
2023-03-04T09:47:06.008Z,1019.52
2023-03-04T09:48:06.003Z,1019.53
2023-03-04T09:49:07.329Z,1019.55
2023-03-04T09:50:05.293Z,1019.57
2023-03-04T09:51:05.972Z,1019.54
2023-03-04T09:52:05.293Z,1019.60
2023-03-04T09:53:05.956Z,1019.57
2023-03-04T09:54:05.952Z,1019.56
2023-03-04T09:55:05.944Z,1019.57
2023-03-04T09:56:05.912Z,1019.52
2023-03-04T09:57:05.256Z,1019.53
2023-03-04T09:58:05.901Z,1019.53
2023-03-04T09:59:05.891Z,1019.60
2023-03-04T10:00:05.876Z,1019.55
2023-03-04T10:01:06.116Z,1019.49
2023-03-04T10:02:05.832Z,1019.53
2023-03-04T10:03:05.166Z,1019.55
2023-03-04T10:04:05.172Z,1019.49
2023-03-04T10:05:05.959Z,1019.48
2023-03-04T10:06:05.810Z,1019.51
2023-03-04T10:07:06.410Z,1019.47
2023-03-04T10:08:05.095Z,1019.48
2023-03-04T10:09:05.101Z,1019.47
2023-03-04T10:10:05.765Z,1019.39
2023-03-04T10:11:05.092Z,1019.44
2023-03-04T10:12:05.743Z,1019.43
2023-03-04T10:13:05.732Z,1019.45
2023-03-04T10:14:05.033Z,1019.41
2023-03-04T10:15:05.021Z,1019.42
2023-03-04T10:16:05.758Z,1019.48
2023-03-04T10:17:05.038Z,1019.48
2023-03-04T10:18:05.683Z,1019.50
2023-03-04T10:19:05.680Z,1019.49
2023-03-04T10:20:05.915Z,1019.51
2023-03-04T10:21:05.655Z,1019.48
2023-03-04T10:22:04.974Z,1019.49
2023-03-04T10:23:05.633Z,1019.53
2023-03-04T10:24:05.641Z,1019.48
2023-03-04T10:25:04.918Z,1019.50
2023-03-04T10:26:04.912Z,1019.47
2023-03-04T10:27:04.921Z,1019.48
2023-03-04T10:28:04.893Z,1019.49
2023-03-04T10:29:05.569Z,1019.49
2023-03-04T10:30:05.550Z,1019.46
2023-03-04T10:31:05.538Z,1019.45
2023-03-04T10:32:05.546Z,1019.48
2023-03-04T10:33:04.841Z,1019.45
2023-03-04T10:34:05.505Z,1019.42
2023-03-04T10:35:05.491Z,1019.46
2023-03-04T10:36:04.855Z,1019.39
2023-03-04T10:37:04.782Z,1019.39
2023-03-04T10:38:05.438Z,1019.41
2023-03-04T10:39:04.774Z,1019.41
2023-03-04T10:40:05.445Z,1019.41
2023-03-04T10:41:05.427Z,1019.41
2023-03-04T10:42:05.508Z,1019.38
2023-03-04T10:43:05.383Z,1019.40
2023-03-04T10:44:05.677Z,1019.41
2023-03-04T10:45:04.768Z,1019.35
2023-03-04T10:46:05.419Z,1019.40
2023-03-04T10:47:04.700Z,1019.37
2023-03-04T10:48:06.920Z,1019.41
2023-03-04T10:49:05.345Z,1019.42
2023-03-04T10:50:05.339Z,1019.43
2023-03-04T10:51:05.327Z,1019.36
2023-03-04T10:52:04.630Z,1019.36
2023-03-04T10:53:05.268Z,1019.36
2023-03-04T10:54:05.273Z,1019.38
2023-03-04T10:55:05.290Z,1019.37
2023-03-04T10:56:05.253Z,1019.35
2023-03-04T10:57:05.281Z,1019.39
2023-03-04T10:58:04.602Z,1019.39
2023-03-04T10:59:05.224Z,1019.32
2023-03-04T11:00:05.214Z,1019.42
2023-03-04T11:01:04.582Z,1019.40
2023-03-04T11:02:04.514Z,1019.40
2023-03-04T11:03:04.525Z,1019.32
2023-03-04T11:04:05.237Z,1019.33
2023-03-04T11:05:05.174Z,1019.31
2023-03-04T11:06:05.168Z,1019.26
2023-03-04T11:07:05.140Z,1019.33
2023-03-04T11:08:05.108Z,1019.28
2023-03-04T11:09:05.114Z,1019.24
2023-03-04T11:10:05.093Z,1019.29
2023-03-04T11:11:05.090Z,1019.24
2023-03-04T11:12:04.393Z,1019.21
2023-03-04T11:13:04.393Z,1019.26
2023-03-04T11:14:05.054Z,1019.17
2023-03-04T11:15:05.040Z,1019.28
2023-03-04T11:16:04.368Z,1019.24
2023-03-04T11:17:05.022Z,1019.24
2023-03-04T11:18:04.996Z,1019.30
2023-03-04T11:19:05.001Z,1019.26
2023-03-04T11:20:05.001Z,1019.26
2023-03-04T11:21:04.982Z,1019.26
2023-03-04T11:22:04.302Z,1019.21
2023-03-04T11:23:04.949Z,1019.21
2023-03-04T11:24:04.953Z,1019.20
2023-03-04T11:25:04.270Z,1019.22
2023-03-04T11:26:04.929Z,1019.17
2023-03-04T11:27:04.913Z,1019.17
2023-03-04T11:28:04.882Z,1019.13
2023-03-04T11:29:04.210Z,1019.19
2023-03-04T11:30:04.202Z,1019.16
2023-03-04T11:31:04.194Z,1019.17
2023-03-04T11:32:04.306Z,1019.14
2023-03-04T11:33:04.850Z,1019.08
2023-03-04T11:34:04.833Z,1019.10
2023-03-04T11:35:04.841Z,1019.15
2023-03-04T11:36:04.150Z,1019.13
2023-03-04T11:37:04.812Z,1019.13
2023-03-04T11:38:04.818Z,1019.09
2023-03-04T11:39:04.781Z,1019.15
2023-03-04T11:40:04.789Z,1019.18
2023-03-04T11:41:04.788Z,1019.15
2023-03-04T11:42:04.775Z,1019.14
2023-03-04T11:43:04.784Z,1019.15
2023-03-04T11:44:04.167Z,1019.16
2023-03-04T11:45:04.751Z,1019.18
2023-03-04T11:46:04.789Z,1019.10
2023-03-04T11:47:04.721Z,1019.07
2023-03-04T11:48:04.713Z,1019.10
2023-03-04T11:49:04.684Z,1019.06
2023-03-04T11:50:04.695Z,1019.10
2023-03-04T11:51:04.685Z,1019.03
2023-03-04T11:52:04.684Z,1018.97
2023-03-04T11:53:04.669Z,1018.99
2023-03-04T11:54:04.648Z,1018.94
2023-03-04T11:55:04.010Z,1018.91
2023-03-04T11:56:04.630Z,1018.86
2023-03-04T11:57:04.617Z,1018.86
2023-03-04T11:58:04.605Z,1018.87
2023-03-04T11:59:04.583Z,1018.91
2023-03-04T12:00:03.915Z,1018.88
2023-03-04T12:01:03.911Z,1018.88
2023-03-04T12:02:04.567Z,1018.82
2023-03-04T12:03:04.406Z,1018.82
2023-03-04T12:04:04.685Z,1018.82
2023-03-04T12:05:04.096Z,1018.88